ADDS METAR Data INFO
IDs: Format: Raw Decoded Include TAF

Data at: 0808 UTC 24 May 2018

KJAS 240755Z AUTO 00000KT 10SM SCT065 BKN090 BKN100 22/21 A3008 RMK AO2 T02180209
KJAS 240735Z AUTO 00000KT 10SM SCT065 BKN090 22/21 A3009 RMK AO2 T02210209
KJAS 240715Z AUTO 00000KT 10SM SCT065 SCT090 22/21 A3009 RMK AO2 T02240211
KJAS 240655Z AUTO 00000KT 10SM SCT060 SCT070 23/21 A3009 RMK AO2 T02250211
KJAS 240635Z AUTO 00000KT 10SM SCT055 22/21 A3009 RMK AO2 T02240211
KJAS 240615Z AUTO 00000KT 10SM CLR 23/21 A3010 RMK AO2 T02260211
KJAS 240555Z AUTO 00000KT 10SM CLR 23/21 A3010 RMK AO2 T02260212
KJAS 240535Z AUTO 00000KT 10SM SCT110 22/21 A3011 RMK AO2 T02210209
KJAS 240515Z AUTO 00000KT 10SM SCT110 22/21 A3010 RMK AO2 T02190208
KJAS 240455Z AUTO 00000KT 10SM SCT110 22/21 A3010 RMK AO2 T02170207
KJAS 240435Z AUTO 00000KT 10SM CLR 22/21 A3010 RMK AO2 T02150206
KJAS 240415Z AUTO 00000KT 10SM CLR 22/21 A3009 RMK AO2 T02150205
KJAS 240355Z AUTO 00000KT 10SM CLR 22/21 A3009 RMK AO2 T02180205
KJAS 240335Z AUTO 00000KT 10SM CLR 22/21 A3008 RMK AO2 T02200206
KJAS 240315Z AUTO 00000KT 10SM CLR 22/21 A3007 RMK AO2 T02200205
KJAS 240255Z AUTO 00000KT 10SM CLR 22/21 A3006 RMK AO2 T02240208
KJAS 240235Z AUTO 00000KT 10SM CLR 23/21 A3006 RMK AO2 T02250208
KJAS 240215Z AUTO 00000KT 10SM CLR 23/21 A3005 RMK AO2 T02280209
KJAS 240155Z AUTO 00000KT 10SM CLR 24/21 A3005 RMK AO2 T02350210
KJAS 240135Z AUTO 00000KT 10SM CLR 25/21 A3005 RMK AO2 T02450211
KJAS 240115Z AUTO 00000KT 10SM CLR 25/21 A3005 RMK AO2 T02520211
KJAS 240055Z AUTO 00000KT 10SM CLR 26/21 A3004 RMK AO2 T02640210
KJAS 240035Z AUTO 00000KT 10SM CLR 27/20 A3003 RMK AO2 T02720204
KJAS 240015Z AUTO 00000KT 10SM CLR 27/20 A3004 RMK AO2 T02720202
KJAS 232355Z AUTO 22003KT 10SM CLR 28/21 A3003 RMK AO2 T02750206
KJAS 232335Z AUTO 23004KT 10SM CLR 28/21 A3004 RMK AO2 T02800207
KJAS 232315Z AUTO 22005KT 10SM CLR 28/20 A3003 RMK AO2 T02840202
KJAS 232255Z AUTO 22004KT 10SM CLR 28/20 A3003 RMK AO2 T02840199
KJAS 232235Z AUTO 17003KT 10SM CLR 28/20 A3003 RMK AO2 T02790197
KJAS 232215Z AUTO 22003KT 10SM CLR 28/20 A3001 RMK AO2 T02750199
KJAS 232155Z AUTO 00000KT 10SM CLR 28/20 A3001 RMK AO2 T02760199
KJAS 232135Z AUTO 24005KT 10SM CLR 28/20 A3004 RMK AO2 T02760198
KJAS 232115Z AUTO 19005KT 10SM CLR 27/20 A3006 RMK AO2 T02690202
KJAS 232055Z AUTO 21004KT 10SM CLR 27/20 A3007 RMK AO2 T02660199
KJAS 232035Z AUTO 19007KT 10SM CLR 26/20 A3009 RMK AO2 T02580196
KJAS 232015Z AUTO 18007KT 10SM SCT100 25/20 A3008 RMK AO2 T02480199
KJAS 231955Z AUTO 19012KT 10SM -DZ SCT037 SCT055 BKN090 25/20 A3009 RMK AO2 T02500201
KJAS 231935Z AUTO 18015G29KT 10SM SCT037 SCT055 BKN065 30/19 A3009 RMK AO2 T03000191
KJAS 231915Z AUTO 17006KT 10SM SCT050 SCT065 BKN095 33/19 A3006 RMK AO2 T03290187
KJAS 231855Z AUTO 08004KT 10SM BKN050 BKN065 32/20 A3006 RMK AO2 T03230195
KJAS 231835Z AUTO 00000KT 10SM SCT050 BKN055 33/19 A3006 RMK AO2 T03270194
KJAS 231815Z AUTO 05003KT 10SM SCT047 BKN055 32/19 A3006 RMK AO2 T03210193
KJAS 231755Z AUTO 12005KT 10SM SCT047 32/19 A3007 RMK AO2 T03170193
KJAS 231735Z AUTO 00000KT 10SM SCT047 32/20 A3007 RMK AO2 T03160196
KJAS 231715Z AUTO 06004KT 10SM CLR 31/20 A3008 RMK AO2 T03130200
KJAS 231655Z AUTO 00000KT 10SM CLR 31/20 A3009 RMK AO2 T03100201
KJAS 231635Z AUTO 11003KT 10SM CLR 31/20 A3009 RMK AO2 T03060202
KJAS 231615Z AUTO 00000KT 10SM CLR 30/21 A3009 RMK AO2 T03000206
KJAS 231555Z AUTO 00000KT 10SM CLR 30/21 A3009 RMK AO2 T02980212
KJAS 231535Z AUTO 00000KT 10SM CLR 29/22 A3010 RMK AO2 T02940220
KJAS 231515Z AUTO 08004KT 10SM SCT023 29/22 A3010 RMK AO2 T02880224
KJAS 231455Z AUTO 00000KT 10SM SCT021 28/23 A3010 RMK AO2 T02830226
KJAS 231435Z AUTO 00000KT 10SM CLR 28/23 A3010 RMK AO2 T02760228
KJAS 231415Z AUTO 00000KT 10SM CLR 27/23 A3010 RMK AO2 T02680227
KJAS 231355Z AUTO 00000KT 10SM CLR 26/22 A3009 RMK AO2 T02600224
KJAS 231335Z AUTO 00000KT 10SM CLR 25/22 A3009 RMK AO2 T02500222
KJAS 231315Z AUTO 00000KT 10SM CLR 23/22 A3009 RMK AO2 T02300218
KJAS 231255Z AUTO 00000KT 10SM CLR 19/19 A3008 RMK AO2 T01920189
KJAS 231235Z AUTO 00000KT 10SM CLR 18/18 A3007 RMK AO2 T01770176
KJAS 231215Z AUTO 00000KT 7SM CLR 17/17 A3007 RMK AO2 T01690169
KJAS 231155Z AUTO 00000KT 5SM BR CLR 16/16 A3006 RMK AO2 T01630163
KJAS 231135Z AUTO 00000KT 3SM BR CLR 17/16 A3005 RMK AO2 T01650164
KJAS 231115Z AUTO 00000KT 1/2SM FG VV005 17/17 A3004 RMK AO2 T01670166
KJAS 231055Z AUTO 00000KT 1 1/4SM BR VV007 17/17 A3003 RMK AO2 T01720171
KJAS 231035Z AUTO 00000KT 3SM BR CLR 18/17 A3003 RMK AO2 T01750174
KJAS 231015Z AUTO 00000KT 1 3/4SM BR VV007 18/18 A3003 RMK AO2 VIS 1V3 T01810179
KJAS 230955Z AUTO 00000KT 5SM BR CLR 18/18 A3002 RMK AO2 T01820180
KJAS 230935Z AUTO 00000KT 5SM BR CLR 19/19 A3002 RMK AO2 T01880186
KJAS 230915Z AUTO 00000KT 7SM CLR 20/19 A3001 RMK AO2 T01970194
KJAS 230855Z AUTO 00000KT 5SM BR CLR 20/20 A3001 RMK AO2 T01980196
KJAS 230835Z AUTO 00000KT 4SM BR CLR 21/20 A3001 RMK AO2 T02060204
KJAS 230815Z AUTO 00000KT 4SM BR CLR 21/21 A3001 RMK AO2 T02100207
KJAS 230755Z AUTO 00000KT 3SM BR CLR 21/21 A3001 RMK AO2 T02130210
KJAS 230735Z AUTO 00000KT 7SM CLR 22/21 A3002 RMK AO2 T02150211
KJAS 230715Z AUTO 00000KT 5SM BR CLR 22/21 A3002 RMK AO2 T02190214
KJAS 230655Z AUTO 00000KT 4SM BR CLR 22/22 A3002 RMK AO2 T02220217
KJAS 230635Z AUTO 00000KT 5SM BR CLR 22/22 A3002 RMK AO2 T02240217
KJAS 230615Z AUTO 00000KT 7SM CLR 23/22 A3003 RMK AO2 T02290219
KJAS 230550Z AUTO 00000KT 10SM CLR 23/22 A3003 RMK AO2 T02320220
KJAS 230535Z AUTO 00000KT 10SM CLR 23/22 A3004 RMK AO2 T02320220
KJAS 230515Z AUTO 00000KT 10SM CLR 23/22 A3004 RMK AO2 T02320220
KJAS 230455Z AUTO 00000KT 10SM CLR 23/22 A3005 RMK AO2 T02340220
KJAS 230435Z AUTO 00000KT 10SM CLR 23/22 A3004 RMK AO2 T02340219
KJAS 230415Z AUTO 00000KT 10SM CLR 24/22 A3004 RMK AO2 T02350221
KJAS 230355Z AUTO 00000KT 10SM SCT050 24/22 A3004 RMK AO2 T02370221
KJAS 230335Z AUTO 00000KT 10SM SCT041 BKN050 24/22 A3003 RMK AO2 T02370222
KJAS 230315Z AUTO 00000KT 10SM BKN050 24/22 A3003 RMK AO2 T02400223
KJAS 230255Z AUTO 00000KT 10SM SCT050 24/22 A3001 RMK AO2 T02400223
KJAS 230235Z AUTO 00000KT 10SM CLR 25/22 A3001 RMK AO2 T02450224
KJAS 230215Z AUTO 00000KT 10SM SCT065 25/23 A3000 RMK AO2 T02470225
KJAS 230155Z AUTO 00000KT 10SM CLR 25/23 A2999 RMK AO2 T02510228
KJAS 230135Z AUTO 00000KT 10SM CLR 26/23 A2998 RMK AO2 T02550226
KJAS 230115Z AUTO 00000KT 10SM CLR 26/23 A2998 RMK AO2 T02600226
KJAS 230055Z AUTO 00000KT 10SM CLR 27/23 A2998 RMK AO2 T02660229
KJAS 230035Z AUTO 00000KT 10SM CLR 28/23 A2997 RMK AO2 T02780226
KJAS 230015Z AUTO 00000KT 10SM CLR 29/22 A2997 RMK AO2 T02870221
KJAS 222355Z AUTO 00000KT 10SM SCT110 30/22 A2997 RMK AO2 T02960218
KJAS 222335Z AUTO 20004KT 10SM SCT110 30/22 A2996 RMK AO2 T02990222
KJAS 222315Z AUTO 21006KT 10SM SCT110 30/22 A2996 RMK AO2 T03020221
KJAS 222255Z AUTO 20009KT 10SM BKN110 31/22 A2996 RMK AO2 T03090216
KJAS 222235Z AUTO 20007G15KT 10SM SCT110 31/21 A2996 RMK AO2 T03080210
KJAS 222215Z AUTO 20011G15KT 10SM SCT050 32/19 A2996 RMK AO2 T03220194
KJAS 222155Z AUTO 22003KT 10SM SCT046 SCT050 SCT070 33/20 A2995 RMK AO2 T03250199
KJAS 222135Z AUTO 00000KT 10SM BKN046 BKN050 BKN070 32/21 A2996 RMK AO2 T03220206
KJAS 222115Z AUTO 01003KT 10SM BKN046 BKN050 32/21 A2996 RMK AO2 T03230207
KJAS 222055Z AUTO 25006KT 10SM BKN044 BKN050 32/20 A2997 RMK AO2 T03220201
KJAS 222035Z AUTO 21004KT 10SM SCT044 32/21 A2998 RMK AO2 T03170210
KJAS 222015Z AUTO 00000KT 10SM SCT050 SCT060 SCT075 31/21 A2999 RMK AO2 T03080213